createdAt,value
2022-09-10T00:01:23.911Z,3.37
2022-09-10T00:03:53.495Z,4.27
2022-09-10T00:06:22.106Z,4.00
2022-09-10T00:08:50.335Z,4.57
2022-09-10T00:11:20.799Z,5.30
2022-09-10T00:13:49.173Z,4.47
2022-09-10T00:16:19.080Z,4.93
2022-09-10T00:18:49.655Z,4.13
2022-09-10T00:21:18.266Z,5.00
2022-09-10T00:23:46.574Z,4.97
2022-09-10T00:26:15.312Z,3.90
2022-09-10T00:28:43.553Z,3.60
2022-09-10T00:31:12.006Z,3.97
2022-09-10T00:33:40.277Z,2.37
2022-09-10T00:36:16.211Z,3.83
2022-09-10T00:38:44.707Z,3.63
2022-09-10T00:41:13.747Z,3.20
2022-09-10T00:43:49.147Z,3.87
2022-09-10T00:46:18.450Z,2.77
2022-09-10T00:48:46.647Z,3.63
2022-09-10T00:51:16.285Z,6.60
2022-09-10T00:53:44.848Z,4.43
2022-09-10T00:56:14.328Z,3.40
2022-09-10T00:58:43.181Z,2.90
2022-09-10T01:01:11.441Z,2.70
2022-09-10T01:03:39.689Z,3.43
2022-09-10T01:06:08.338Z,3.17
2022-09-10T01:08:38.147Z,5.37
2022-09-10T01:11:10.140Z,3.43
2022-09-10T01:13:51.454Z,4.10
2022-09-10T01:16:20.357Z,5.07
2022-09-10T01:18:51.576Z,4.20
2022-09-10T01:21:21.833Z,3.07
2022-09-10T01:24:08.753Z,2.87
2022-09-10T01:26:42.358Z,3.67
2022-09-10T01:29:12.916Z,3.43
2022-09-10T01:31:42.044Z,1.70
2022-09-10T01:34:12.329Z,3.30
2022-09-10T01:36:40.675Z,3.13
2022-09-10T01:39:08.902Z,4.07
2022-09-10T01:41:37.140Z,2.47
2022-09-10T01:44:09.801Z,3.47
2022-09-10T01:46:41.674Z,2.77
2022-09-10T01:49:14.677Z,2.80
2022-09-10T01:51:50.586Z,2.80
2022-09-10T01:54:25.400Z,5.03
2022-09-10T01:56:55.251Z,5.70
2022-09-10T01:59:25.115Z,4.07
2022-09-10T02:01:57.961Z,5.83
2022-09-10T02:04:26.228Z,3.80
2022-09-10T02:06:54.462Z,3.50
2022-09-10T02:09:22.704Z,3.57
2022-09-10T02:11:51.933Z,2.20
2022-09-10T02:14:21.937Z,4.10
2022-09-10T02:16:52.158Z,4.23
2022-09-10T02:19:21.725Z,4.93
2022-09-10T02:21:49.996Z,4.53
2022-09-10T02:24:18.282Z,4.57
2022-09-10T02:26:47.267Z,4.03
2022-09-10T02:29:15.872Z,3.77
2022-09-10T02:31:44.854Z,5.17
2022-09-10T02:34:13.127Z,5.60
2022-09-10T02:36:43.461Z,3.63
2022-09-10T02:39:11.712Z,6.00
2022-09-10T02:41:41.502Z,4.37
2022-09-10T02:44:09.795Z,5.80
2022-09-10T02:46:38.287Z,2.80
2022-09-10T02:49:06.547Z,3.47
2022-09-10T02:51:34.783Z,4.83
2022-09-10T02:54:04.931Z,3.83
2022-09-10T02:56:34.209Z,3.43
2022-09-10T02:59:02.427Z,4.43
2022-09-10T03:01:30.728Z,3.97
2022-09-10T03:03:59.206Z,4.40
2022-09-10T03:06:27.532Z,5.43
2022-09-10T03:08:57.650Z,4.77
2022-09-10T03:11:27.528Z,5.70
2022-09-10T03:13:55.968Z,4.30
2022-09-10T03:16:24.450Z,3.70
2022-09-10T03:18:52.815Z,3.77
2022-09-10T03:21:21.556Z,4.83
2022-09-10T03:23:50.663Z,3.27
2022-09-10T03:26:19.399Z,3.67
2022-09-10T03:28:50.115Z,4.87
2022-09-10T03:31:19.157Z,4.20
2022-09-10T03:33:47.437Z,3.20
2022-09-10T03:36:15.666Z,4.73
2022-09-10T03:38:44.022Z,2.27
2022-09-10T03:41:12.346Z,2.60
2022-09-10T03:43:41.849Z,3.67
2022-09-10T03:46:12.317Z,2.50
2022-09-10T03:48:40.699Z,3.53
2022-09-10T03:51:10.809Z,3.47
2022-09-10T03:53:39.634Z,3.07
2022-09-10T03:56:08.690Z,2.73
2022-09-10T03:58:37.007Z,2.90
2022-09-10T04:01:05.427Z,2.20
2022-09-10T04:03:35.023Z,2.23
2022-09-10T04:06:03.270Z,4.27
2022-09-10T04:08:31.567Z,3.20
2022-09-10T04:11:03.199Z,2.70
2022-09-10T04:13:31.967Z,1.67
2022-09-10T04:16:01.342Z,2.83
2022-09-10T04:18:29.608Z,3.23
2022-09-10T04:20:59.193Z,2.73
2022-09-10T04:23:27.447Z,1.33
2022-09-10T04:25:56.455Z,1.90
2022-09-10T04:28:25.164Z,3.63
2022-09-10T04:30:53.384Z,1.43
2022-09-10T04:33:21.589Z,2.83
2022-09-10T04:35:49.840Z,1.90
2022-09-10T04:38:19.408Z,1.77
2022-09-10T04:40:47.658Z,1.20
2022-09-10T04:43:15.936Z,1.53
2022-09-10T04:45:44.213Z,2.77
2022-09-10T04:48:12.471Z,1.50
2022-09-10T04:50:59.402Z,1.47
2022-09-10T04:53:31.319Z,1.97
2022-09-10T04:55:59.601Z,2.00
2022-09-10T04:58:27.863Z,1.97
2022-09-10T05:00:57.126Z,0.77
2022-09-10T05:03:25.459Z,1.73
2022-09-10T05:05:53.682Z,1.13
2022-09-10T05:08:21.925Z,1.27
2022-09-10T05:10:51.529Z,1.00
2022-09-10T05:13:19.742Z,2.63
2022-09-10T05:15:47.997Z,1.93
2022-09-10T05:18:16.643Z,1.40
2022-09-10T05:20:45.433Z,0.87
2022-09-10T05:23:13.739Z,0.97
2022-09-10T05:25:41.976Z,1.43
2022-09-10T05:28:11.560Z,1.60
2022-09-10T05:30:39.799Z,1.13
2022-09-10T05:33:08.027Z,0.73
2022-09-10T05:35:36.284Z,0.60
2022-09-10T05:38:04.542Z,0.93
2022-09-10T05:40:32.787Z,0.60
2022-09-10T05:43:01.006Z,1.93
2022-09-10T05:45:30.633Z,1.43
2022-09-10T05:47:59.783Z,0.73
2022-09-10T05:50:28.478Z,1.10
2022-09-10T05:52:56.747Z,1.73
2022-09-10T05:55:24.983Z,0.60
2022-09-10T05:57:53.225Z,1.20
2022-09-10T06:00:21.513Z,0.80
2022-09-10T06:02:51.194Z,1.27
2022-09-10T06:05:22.820Z,0.40
2022-09-10T06:07:51.065Z,0.63
2022-09-10T06:10:19.978Z,0.77
2022-09-10T06:12:48.484Z,0.93
2022-09-10T06:15:16.928Z,1.47
2022-09-10T06:17:45.150Z,1.37
2022-09-10T06:20:15.793Z,0.40
2022-09-10T06:22:43.995Z,1.40
2022-09-10T06:25:12.563Z,0.70
2022-09-10T06:27:41.507Z,1.03
2022-09-10T06:30:09.968Z,2.40
2022-09-10T06:32:39.250Z,1.93
2022-09-10T06:35:07.970Z,4.27
2022-09-10T06:37:37.571Z,0.50
2022-09-10T06:40:06.891Z,1.40
2022-09-10T06:42:35.351Z,0.90
2022-09-10T06:45:03.603Z,0.53
2022-09-10T06:48:36.700Z,1.00
2022-09-10T06:50:20.192Z,0.97
2022-09-10T06:52:49.940Z,2.93
2022-09-10T06:55:18.300Z,0.47
2022-09-10T06:57:47.180Z,0.40
2022-09-10T07:00:15.925Z,1.23
2022-09-10T07:02:44.150Z,3.33
2022-09-10T07:05:12.498Z,0.57
2022-09-10T07:07:40.897Z,0.50
2022-09-10T07:10:11.017Z,0.40
2022-09-10T07:12:39.261Z,0.73
2022-09-10T07:15:07.894Z,0.50
2022-09-10T07:17:36.657Z,0.63
2022-09-10T07:20:05.341Z,1.27
2022-09-10T07:22:33.599Z,0.83
2022-09-10T07:25:01.860Z,4.07
2022-09-10T07:27:31.585Z,0.73
2022-09-10T07:29:59.830Z,1.60
2022-09-10T07:32:29.199Z,1.00
2022-09-10T07:34:57.856Z,0.67
2022-09-10T07:37:26.599Z,0.67
2022-09-10T07:39:54.960Z,1.57
2022-09-10T07:42:23.337Z,0.67
2022-09-10T07:44:53.418Z,1.23
2022-09-10T07:47:22.098Z,3.50
2022-09-10T07:49:52.619Z,1.07
2022-09-10T07:52:20.858Z,1.27
2022-09-10T07:54:49.121Z,1.80
2022-09-10T07:57:17.457Z,1.63
2022-09-10T07:59:45.718Z,2.00
2022-09-10T08:02:16.101Z,1.43
2022-09-10T08:04:44.617Z,3.20
2022-09-10T08:07:12.902Z,2.87
2022-09-10T08:09:41.143Z,2.10
2022-09-10T08:12:09.814Z,2.30
2022-09-10T08:14:38.344Z,2.10
2022-09-10T08:17:06.940Z,1.97
2022-09-10T08:19:36.704Z,2.13
2022-09-10T08:22:07.419Z,1.60
2022-09-10T08:24:38.614Z,1.60
2022-09-10T08:27:07.082Z,1.10
2022-09-10T08:29:35.575Z,2.50
2022-09-10T08:32:05.145Z,2.57
2022-09-10T08:34:34.232Z,0.87
2022-09-10T08:37:04.338Z,0.87
2022-09-10T08:39:32.964Z,2.83
2022-09-10T08:42:02.268Z,1.33
2022-09-10T08:44:33.175Z,1.33
2022-09-10T08:47:04.363Z,1.30
2022-09-10T08:49:33.547Z,1.83
2022-09-10T08:52:03.072Z,2.30
2022-09-10T08:54:33.021Z,1.63
2022-09-10T08:57:01.698Z,3.10
2022-09-10T08:59:30.442Z,2.27
2022-09-10T09:01:59.500Z,1.70
2022-09-10T09:04:30.316Z,1.57
2022-09-10T09:06:58.792Z,1.40
2022-09-10T09:09:27.187Z,1.53
2022-09-10T09:11:59.699Z,1.10
2022-09-10T09:14:46.214Z,1.27
2022-09-10T09:17:18.620Z,3.43
2022-09-10T09:19:47.273Z,1.40
2022-09-10T09:22:17.329Z,1.37
2022-09-10T09:24:47.972Z,1.77
2022-09-10T09:27:17.806Z,2.63
2022-09-10T09:29:47.185Z,2.23
2022-09-10T09:32:17.020Z,1.50
2022-09-10T09:34:45.988Z,2.17
2022-09-10T09:37:15.637Z,3.23
2022-09-10T09:39:44.589Z,0.73
2022-09-10T09:42:14.290Z,2.60
2022-09-10T09:44:46.589Z,1.33
2022-09-10T09:47:14.839Z,1.50
2022-09-10T09:49:43.377Z,2.07
2022-09-10T09:52:18.467Z,2.30
2022-09-10T09:55:13.149Z,0.90
2022-09-10T09:57:35.701Z,1.50
2022-09-10T10:00:13.067Z,1.40
2022-09-10T10:02:41.446Z,1.57
2022-09-10T10:05:25.351Z,2.53
2022-09-10T10:07:53.645Z,2.03
2022-09-10T10:10:24.080Z,7.40
2022-09-10T10:12:52.454Z,1.97
2022-09-10T10:15:36.544Z,1.93
2022-09-10T10:18:08.443Z,0.70
2022-09-10T10:20:38.038Z,1.83
2022-09-10T10:23:08.480Z,3.33
2022-09-10T10:25:40.455Z,1.53
2022-09-10T10:28:15.713Z,0.80
2022-09-10T10:30:44.805Z,2.67
2022-09-10T10:33:19.263Z,1.00
2022-09-10T10:35:48.786Z,3.63
2022-09-10T10:38:41.278Z,1.00
2022-09-10T10:41:13.575Z,0.97
2022-09-10T10:43:44.288Z,1.37
2022-09-10T10:46:13.312Z,1.10
2022-09-10T10:48:48.499Z,0.50
2022-09-10T10:51:18.249Z,0.63
2022-09-10T10:53:53.704Z,0.70
2022-09-10T10:56:23.790Z,1.07
2022-09-10T10:58:59.507Z,1.03
2022-09-10T11:01:28.817Z,0.97
2022-09-10T11:04:00.468Z,0.80
2022-09-10T11:06:30.444Z,0.93
2022-09-10T11:08:58.882Z,1.17
2022-09-10T11:11:29.483Z,1.43
2022-09-10T11:13:58.513Z,1.17
2022-09-10T11:16:27.891Z,1.13
2022-09-10T11:18:58.058Z,1.57
2022-09-10T11:21:29.816Z,2.80
2022-09-10T11:23:59.956Z,2.83
2022-09-10T11:26:29.455Z,1.30
2022-09-10T11:28:59.334Z,1.50
2022-09-10T11:31:30.764Z,2.83
2022-09-10T11:33:59.641Z,1.90
2022-09-10T11:36:31.689Z,2.27
2022-09-10T11:39:02.758Z,3.37
2022-09-10T11:41:32.822Z,8.13
2022-09-10T11:44:03.603Z,3.57
2022-09-10T11:46:32.928Z,2.97
2022-09-10T11:49:03.559Z,3.47
2022-09-10T11:51:34.765Z,3.77
2022-09-10T11:54:03.013Z,2.03
2022-09-10T11:56:46.296Z,3.80
2022-09-10T11:59:17.696Z,2.30
2022-09-10T12:01:52.941Z,3.23
2022-09-10T12:04:24.801Z,3.13
2022-09-10T12:06:57.971Z,7.07
2022-09-10T12:09:26.689Z,4.60
2022-09-10T12:11:56.260Z,2.40
2022-09-10T12:14:24.538Z,4.30
2022-09-10T12:16:53.653Z,2.67
2022-09-10T12:19:23.717Z,2.83
2022-09-10T12:21:52.333Z,5.47
2022-09-10T12:24:26.553Z,2.40
2022-09-10T12:26:54.790Z,3.63
2022-09-10T12:29:27.870Z,3.13
2022-09-10T12:32:14.670Z,3.40
2022-09-10T12:34:43.097Z,5.23
2022-09-10T12:37:21.478Z,3.50
2022-09-10T12:39:51.305Z,4.03
2022-09-10T12:42:45.161Z,5.10
2022-09-10T12:45:13.522Z,2.23
2022-09-10T12:47:53.645Z,3.43
2022-09-10T12:50:24.260Z,2.60
2022-09-10T12:52:59.965Z,3.37
2022-09-10T12:55:36.237Z,3.03
2022-09-10T12:58:06.259Z,2.73
2022-09-10T13:00:38.216Z,3.73
2022-09-10T13:03:11.345Z,2.37
2022-09-10T13:05:40.466Z,3.77
2022-09-10T13:08:11.895Z,3.10
2022-09-10T13:10:42.060Z,3.40
2022-09-10T13:13:26.490Z,3.00
2022-09-10T13:15:54.963Z,2.73
2022-09-10T13:18:24.667Z,4.10
2022-09-10T13:20:52.895Z,1.87
2022-09-10T13:23:21.889Z,4.67
2022-09-10T13:25:51.864Z,2.67
2022-09-10T13:28:40.919Z,5.03
2022-09-10T13:31:12.987Z,1.90
2022-09-10T13:33:44.233Z,2.90
2022-09-10T13:36:14.080Z,2.23
2022-09-10T13:38:57.592Z,2.57
2022-09-10T13:41:49.272Z,1.60
2022-09-10T13:44:21.907Z,3.33
2022-09-10T13:46:50.675Z,1.90
2022-09-10T13:49:20.694Z,1.30
2022-09-10T13:51:51.792Z,1.73
2022-09-10T13:54:29.457Z,1.30
2022-09-10T13:56:59.709Z,2.07
2022-09-10T13:59:30.866Z,1.23
2022-09-10T14:01:59.553Z,2.33
2022-09-10T14:04:28.347Z,1.60
2022-09-10T14:06:58.632Z,1.00
2022-09-10T14:09:26.968Z,2.30
2022-09-10T14:11:55.433Z,0.93
2022-09-10T14:14:25.912Z,2.53
2022-09-10T14:16:54.691Z,1.70
2022-09-10T14:19:24.027Z,3.27
2022-09-10T14:21:53.371Z,1.97
2022-09-10T14:24:29.783Z,1.93
2022-09-10T14:27:08.178Z,1.13
2022-09-10T14:29:37.960Z,1.37
2022-09-10T14:32:33.191Z,2.83
2022-09-10T14:35:05.815Z,0.93
2022-09-10T14:37:38.042Z,1.93
2022-09-10T14:40:07.887Z,1.57
2022-09-10T14:42:36.592Z,1.43
2022-09-10T14:45:06.541Z,3.10
2022-09-10T14:47:37.034Z,3.10
2022-09-10T14:50:23.719Z,6.63
2022-09-10T14:52:52.037Z,2.10
2022-09-10T14:55:20.639Z,4.03
2022-09-10T14:57:49.077Z,1.73
2022-09-10T15:00:19.176Z,2.20
2022-09-10T15:02:48.402Z,2.43
2022-09-10T15:05:17.563Z,4.53
2022-09-10T15:07:46.011Z,1.73
2022-09-10T15:10:14.273Z,3.20
2022-09-10T15:12:43.346Z,1.63
2022-09-10T15:15:17.235Z,2.37
2022-09-10T15:17:47.223Z,3.23
2022-09-10T15:20:16.993Z,3.83
2022-09-10T15:22:45.505Z,1.87
2022-09-10T15:25:24.546Z,4.20
2022-09-10T15:27:52.779Z,2.90
2022-09-10T15:30:20.987Z,4.37
2022-09-10T15:32:52.098Z,1.50
2022-09-10T15:35:20.308Z,2.07
2022-09-10T15:37:48.588Z,2.33
2022-09-10T15:40:17.340Z,2.73
2022-09-10T15:42:45.681Z,1.80
2022-09-10T15:45:13.940Z,2.97
2022-09-10T15:47:42.454Z,2.33
2022-09-10T15:50:12.613Z,3.80
2022-09-10T15:52:40.884Z,2.73
2022-09-10T15:55:09.593Z,1.87
2022-09-10T15:57:37.868Z,1.17
2022-09-10T16:00:06.744Z,2.73
2022-09-10T16:02:35.051Z,1.87
2022-09-10T16:05:03.289Z,3.33
2022-09-10T16:07:32.932Z,2.70
2022-09-10T16:10:01.369Z,2.87
2022-09-10T16:12:30.060Z,1.87
2022-09-10T16:14:58.332Z,2.73
2022-09-10T16:17:26.770Z,2.37
2022-09-10T16:19:56.293Z,2.17
2022-09-10T16:22:24.956Z,2.37
2022-09-10T16:24:54.691Z,1.47
2022-09-10T16:27:24.502Z,3.70
2022-09-10T16:29:52.761Z,2.80
2022-09-10T16:32:21.175Z,1.40
2022-09-10T16:34:49.425Z,1.77
2022-09-10T16:37:18.362Z,5.53
2022-09-10T16:39:46.769Z,2.17
2022-09-10T16:42:17.252Z,1.80
2022-09-10T16:44:45.524Z,3.17
2022-09-10T16:47:14.194Z,2.73
2022-09-10T16:49:42.451Z,3.43
2022-09-10T16:52:11.947Z,2.90
2022-09-10T16:54:40.364Z,1.83
2022-09-10T16:57:09.092Z,1.23
2022-09-10T16:59:38.733Z,2.73
2022-09-10T17:02:07.633Z,2.00
2022-09-10T17:04:35.934Z,2.40
2022-09-10T17:07:04.218Z,2.43
2022-09-10T17:09:32.620Z,3.90
2022-09-10T17:12:00.931Z,1.23
2022-09-10T17:14:29.172Z,1.97
2022-09-10T17:16:58.932Z,2.73
2022-09-10T17:19:27.426Z,2.17
2022-09-10T17:21:56.209Z,2.47
2022-09-10T17:24:25.943Z,1.17
2022-09-10T17:26:54.992Z,2.83
2022-09-10T17:29:23.848Z,1.87
2022-09-10T17:31:52.500Z,3.47
2022-09-10T17:34:24.410Z,3.10
2022-09-10T17:36:52.781Z,3.77
2022-09-10T17:39:21.005Z,2.40
2022-09-10T17:41:49.535Z,1.90
2022-09-10T17:44:18.226Z,3.10
2022-09-10T17:46:46.490Z,2.03
2022-09-10T17:49:14.878Z,1.63
2022-09-10T17:51:44.613Z,3.73
2022-09-10T17:54:13.563Z,1.83
2022-09-10T17:56:41.906Z,3.40
2022-09-10T17:59:10.346Z,2.77
2022-09-10T18:01:38.926Z,5.03
2022-09-10T18:04:07.419Z,4.13
2022-09-10T18:06:36.526Z,4.87
2022-09-10T18:09:06.386Z,3.67
2022-09-10T18:11:37.066Z,6.23
2022-09-10T18:14:05.539Z,7.07
2022-09-10T18:16:34.030Z,5.40
2022-09-10T18:19:03.423Z,7.47
2022-09-10T18:21:32.186Z,6.93
2022-09-10T18:24:01.254Z,6.50
2022-09-10T18:26:31.675Z,5.90
2022-09-10T18:29:00.341Z,5.60
2022-09-10T18:31:29.123Z,6.93
2022-09-10T18:33:57.435Z,7.23
2022-09-10T18:36:26.108Z,8.27
2022-09-10T18:38:54.418Z,5.57
2022-09-10T18:41:23.286Z,5.53
2022-09-10T18:43:53.172Z,6.00
2022-09-10T18:46:22.485Z,6.63
2022-09-10T18:48:50.814Z,6.40
2022-09-10T18:51:19.451Z,11.00
2022-09-10T18:53:47.739Z,9.47
2022-09-10T18:56:16.495Z,13.90
2022-09-10T18:58:44.833Z,9.77
2022-09-10T19:01:14.932Z,8.40
2022-09-10T19:03:43.803Z,12.60
2022-09-10T19:06:12.330Z,7.13
2022-09-10T19:08:44.974Z,7.97
2022-09-10T19:11:17.276Z,7.03
2022-09-10T19:13:48.902Z,9.27
2022-09-10T19:16:19.075Z,6.70
2022-09-10T19:18:50.578Z,8.57
2022-09-10T19:21:20.114Z,15.30
2022-09-10T19:23:48.498Z,7.53
2022-09-10T19:26:17.162Z,10.30
2022-09-10T19:28:45.393Z,8.90
2022-09-10T19:31:14.657Z,13.20
2022-09-10T19:33:44.387Z,9.70
2022-09-10T19:36:12.977Z,6.80
2022-09-10T19:38:41.368Z,9.40
2022-09-10T19:41:10.095Z,13.70
2022-09-10T19:43:38.351Z,9.37
2022-09-10T19:46:06.896Z,9.00
2022-09-10T19:48:35.302Z,7.97
2022-09-10T19:51:05.165Z,9.67
2022-09-10T19:53:33.426Z,7.50
2022-09-10T19:56:04.567Z,9.17
2022-09-10T19:58:32.858Z,8.80
2022-09-10T20:01:01.278Z,9.90
2022-09-10T20:03:29.587Z,8.00
2022-09-10T20:05:57.828Z,7.67
2022-09-10T20:08:27.427Z,9.00
2022-09-10T20:10:55.925Z,11.70
2022-09-10T20:13:24.950Z,8.10
2022-09-10T20:15:53.806Z,13.87
2022-09-10T20:18:23.975Z,7.83
2022-09-10T20:20:52.197Z,13.73
2022-09-10T20:23:20.453Z,8.23
2022-09-10T20:25:50.196Z,7.50
2022-09-10T20:28:18.411Z,10.83
2022-09-10T20:30:46.776Z,10.33
2022-09-10T20:33:15.260Z,10.03
2022-09-10T20:35:43.848Z,8.83
2022-09-10T20:38:12.803Z,12.57
2022-09-10T20:40:43.003Z,8.03
2022-09-10T20:43:13.573Z,8.10
2022-09-10T20:45:44.026Z,7.70
2022-09-10T20:48:12.286Z,10.33
2022-09-10T20:50:40.555Z,11.23
2022-09-10T20:53:08.928Z,9.67
2022-09-10T20:55:37.743Z,7.80
2022-09-10T20:58:05.966Z,7.30
2022-09-10T21:00:35.851Z,8.60
2022-09-10T21:03:04.123Z,8.67
2022-09-10T21:05:32.345Z,8.00
2022-09-10T21:08:00.703Z,11.13
2022-09-10T21:10:28.956Z,10.17
2022-09-10T21:12:57.218Z,12.43
2022-09-10T21:15:26.382Z,9.67
2022-09-10T21:17:55.967Z,7.63
2022-09-10T21:20:24.211Z,9.00
2022-09-10T21:22:52.523Z,11.67
2022-09-10T21:25:21.991Z,9.53
2022-09-10T21:27:50.242Z,11.57
2022-09-10T21:30:18.497Z,10.67
2022-09-10T21:32:46.731Z,13.27
2022-09-10T21:35:16.789Z,15.13
2022-09-10T21:37:45.052Z,13.03
2022-09-10T21:40:13.715Z,11.10
2022-09-10T21:42:42.026Z,10.10
2022-09-10T21:45:11.360Z,9.43
2022-09-10T21:47:39.701Z,9.50
2022-09-10T21:50:08.155Z,8.80
2022-09-10T21:52:37.887Z,10.87
2022-09-10T21:55:06.446Z,10.70
2022-09-10T21:57:34.662Z,10.50
2022-09-10T22:00:03.072Z,11.73
2022-09-10T22:02:31.584Z,9.87
2022-09-10T22:05:00.503Z,8.63
2022-09-10T22:07:28.898Z,8.83
2022-09-10T22:09:58.496Z,6.73
2022-09-10T22:12:26.713Z,10.23
2022-09-10T22:14:56.572Z,8.27
2022-09-10T22:17:24.865Z,11.17
2022-09-10T22:19:53.312Z,6.47
2022-09-10T22:22:21.557Z,8.53
2022-09-10T22:24:49.778Z,6.97
2022-09-10T22:27:19.375Z,8.27
2022-09-10T22:29:47.607Z,10.63
2022-09-10T22:32:15.825Z,6.43
2022-09-10T22:34:44.082Z,8.63
2022-09-10T22:37:12.302Z,8.20
2022-09-10T22:39:40.689Z,10.70
2022-09-10T22:42:09.036Z,12.13
2022-09-10T22:44:38.654Z,11.77
2022-09-10T22:47:07.784Z,10.83
2022-09-10T22:49:37.226Z,9.97
2022-09-10T22:52:06.114Z,9.07
2022-09-10T22:54:34.695Z,9.47
2022-09-10T22:57:03.000Z,10.07
2022-09-10T22:59:37.299Z,10.00
2022-09-10T23:02:06.986Z,13.80
2022-09-10T23:04:35.259Z,12.07
2022-09-10T23:07:03.520Z,10.47
2022-09-10T23:09:31.796Z,7.53
2022-09-10T23:12:01.242Z,8.50
2022-09-10T23:14:29.513Z,10.33
2022-09-10T23:16:58.187Z,13.27
2022-09-10T23:19:30.579Z,13.33
2022-09-10T23:21:58.828Z,9.67
2022-09-10T23:24:28.202Z,12.10
2022-09-10T23:26:56.420Z,9.67
2022-09-10T23:29:24.837Z,10.30
2022-09-10T23:31:54.264Z,11.27
2022-09-10T23:34:22.867Z,10.37
2022-09-10T23:36:52.491Z,9.90
2022-09-10T23:39:21.153Z,10.43
2022-09-10T23:41:49.477Z,10.97
2022-09-10T23:44:17.751Z,8.70
2022-09-10T23:46:45.987Z,8.83
2022-09-10T23:49:14.330Z,11.10
2022-09-10T23:51:42.555Z,9.07
2022-09-10T23:54:12.375Z,7.77
2022-09-10T23:56:40.705Z,10.80
2022-09-10T23:59:09.162Z,8.37
